sensor_id;sensor_type;location;lat;lon;timestamp;P1;durP1;ratioP1;P2;durP2;ratioP2
25091;SDS011;13082;52.374;4.946;2023-11-18T00:00:31;19.13;;;11.60;;
25091;SDS011;13082;52.374;4.946;2023-11-18T00:02:57;22.93;;;13.60;;
25091;SDS011;13082;52.374;4.946;2023-11-18T00:05:23;18.97;;;11.37;;
25091;SDS011;13082;52.374;4.946;2023-11-18T00:07:49;17.97;;;12.10;;
25091;SDS011;13082;52.374;4.946;2023-11-18T00:10:15;20.47;;;10.53;;
25091;SDS011;13082;52.374;4.946;2023-11-18T00:12:41;21.73;;;12.27;;
25091;SDS011;13082;52.374;4.946;2023-11-18T00:15:07;20.93;;;12.03;;
25091;SDS011;13082;52.374;4.946;2023-11-18T00:17:39;19.07;;;11.47;;
25091;SDS011;13082;52.374;4.946;2023-11-18T00:20:05;22.40;;;12.97;;
25091;SDS011;13082;52.374;4.946;2023-11-18T00:22:37;23.67;;;11.97;;
25091;SDS011;13082;52.374;4.946;2023-11-18T00:25:03;17.90;;;11.13;;
25091;SDS011;13082;52.374;4.946;2023-11-18T00:27:32;18.17;;;11.77;;
25091;SDS011;13082;52.374;4.946;2023-11-18T00:30:01;20.23;;;12.57;;
25091;SDS011;13082;52.374;4.946;2023-11-18T00:32:30;21.60;;;13.07;;
25091;SDS011;13082;52.374;4.946;2023-11-18T00:34:56;23.60;;;12.23;;
25091;SDS011;13082;52.374;4.946;2023-11-18T00:37:22;22.33;;;12.53;;
25091;SDS011;13082;52.374;4.946;2023-11-18T00:39:48;22.93;;;12.93;;
25091;SDS011;13082;52.374;4.946;2023-11-18T00:42:13;21.47;;;11.70;;
25091;SDS011;13082;52.374;4.946;2023-11-18T00:44:39;17.37;;;11.73;;
25091;SDS011;13082;52.374;4.946;2023-11-18T00:47:05;23.27;;;12.60;;
25091;SDS011;13082;52.374;4.946;2023-11-18T00:49:30;18.67;;;11.10;;
25091;SDS011;13082;52.374;4.946;2023-11-18T00:51:56;19.63;;;11.30;;
25091;SDS011;13082;52.374;4.946;2023-11-18T00:54:22;20.10;;;12.07;;
25091;SDS011;13082;52.374;4.946;2023-11-18T00:56:47;22.30;;;12.50;;
25091;SDS011;13082;52.374;4.946;2023-11-18T00:59:13;20.70;;;10.97;;
25091;SDS011;13082;52.374;4.946;2023-11-18T01:01:39;20.53;;;11.20;;
25091;SDS011;13082;52.374;4.946;2023-11-18T01:04:05;20.70;;;11.00;;
25091;SDS011;13082;52.374;4.946;2023-11-18T01:06:30;26.37;;;11.57;;
25091;SDS011;13082;52.374;4.946;2023-11-18T01:08:57;20.63;;;11.77;;
25091;SDS011;13082;52.374;4.946;2023-11-18T01:11:23;17.87;;;10.40;;
25091;SDS011;13082;52.374;4.946;2023-11-18T01:13:49;17.77;;;12.00;;
25091;SDS011;13082;52.374;4.946;2023-11-18T01:16:15;17.67;;;11.23;;
25091;SDS011;13082;52.374;4.946;2023-11-18T01:18:41;18.67;;;10.47;;
25091;SDS011;13082;52.374;4.946;2023-11-18T01:21:07;14.57;;;10.40;;
25091;SDS011;13082;52.374;4.946;2023-11-18T01:23:36;17.53;;;11.73;;
25091;SDS011;13082;52.374;4.946;2023-11-18T01:26:05;19.57;;;10.90;;
25091;SDS011;13082;52.374;4.946;2023-11-18T01:28:31;20.73;;;11.07;;
25091;SDS011;13082;52.374;4.946;2023-11-18T01:31:02;18.53;;;11.43;;
25091;SDS011;13082;52.374;4.946;2023-11-18T01:33:29;16.63;;;10.47;;
25091;SDS011;13082;52.374;4.946;2023-11-18T01:35:55;20.03;;;11.57;;
25091;SDS011;13082;52.374;4.946;2023-11-18T01:38:20;18.07;;;11.33;;
25091;SDS011;13082;52.374;4.946;2023-11-18T01:40:46;15.63;;;10.23;;
25091;SDS011;13082;52.374;4.946;2023-11-18T01:43:12;16.97;;;11.17;;
25091;SDS011;13082;52.374;4.946;2023-11-18T01:45:40;18.07;;;9.93;;
25091;SDS011;13082;52.374;4.946;2023-11-18T01:48:06;18.73;;;11.57;;
25091;SDS011;13082;52.374;4.946;2023-11-18T01:50:34;20.27;;;11.97;;
25091;SDS011;13082;52.374;4.946;2023-11-18T01:53:05;17.37;;;11.20;;
25091;SDS011;13082;52.374;4.946;2023-11-18T01:55:32;18.53;;;12.50;;
25091;SDS011;13082;52.374;4.946;2023-11-18T01:57:59;18.07;;;10.93;;
25091;SDS011;13082;52.374;4.946;2023-11-18T02:00:32;21.23;;;10.73;;
25091;SDS011;13082;52.374;4.946;2023-11-18T02:03:00;19.53;;;11.73;;
25091;SDS011;13082;52.374;4.946;2023-11-18T02:05:25;22.70;;;11.87;;
25091;SDS011;13082;52.374;4.946;2023-11-18T02:07:51;18.13;;;11.17;;
25091;SDS011;13082;52.374;4.946;2023-11-18T02:10:17;15.27;;;10.67;;
25091;SDS011;13082;52.374;4.946;2023-11-18T02:12:44;19.60;;;11.90;;
25091;SDS011;13082;52.374;4.946;2023-11-18T02:15:18;23.90;;;11.37;;
25091;SDS011;13082;52.374;4.946;2023-11-18T02:17:45;17.37;;;12.00;;
25091;SDS011;13082;52.374;4.946;2023-11-18T02:20:14;19.87;;;11.87;;
25091;SDS011;13082;52.374;4.946;2023-11-18T02:22:42;21.07;;;12.03;;
25091;SDS011;13082;52.374;4.946;2023-11-18T02:25:14;17.13;;;10.93;;
25091;SDS011;13082;52.374;4.946;2023-11-18T02:27:41;17.50;;;11.00;;
25091;SDS011;13082;52.374;4.946;2023-11-18T02:30:08;20.60;;;10.90;;
25091;SDS011;13082;52.374;4.946;2023-11-18T02:32:39;15.53;;;10.93;;
25091;SDS011;13082;52.374;4.946;2023-11-18T02:35:25;19.77;;;12.07;;
25091;SDS011;13082;52.374;4.946;2023-11-18T02:38:02;18.90;;;11.60;;
25091;SDS011;13082;52.374;4.946;2023-11-18T02:40:33;14.77;;;11.00;;
25091;SDS011;13082;52.374;4.946;2023-11-18T02:43:01;19.13;;;10.67;;
25091;SDS011;13082;52.374;4.946;2023-11-18T02:45:30;14.87;;;10.60;;
25091;SDS011;13082;52.374;4.946;2023-11-18T02:47:57;15.90;;;10.57;;
25091;SDS011;13082;52.374;4.946;2023-11-18T02:50:26;17.63;;;11.00;;
25091;SDS011;13082;52.374;4.946;2023-11-18T02:52:52;24.60;;;10.77;;
25091;SDS011;13082;52.374;4.946;2023-11-18T02:55:18;17.20;;;10.80;;
25091;SDS011;13082;52.374;4.946;2023-11-18T02:57:46;15.40;;;10.30;;
25091;SDS011;13082;52.374;4.946;2023-11-18T03:00:12;18.00;;;10.77;;
25091;SDS011;13082;52.374;4.946;2023-11-18T03:02:44;15.47;;;10.40;;
25091;SDS011;13082;52.374;4.946;2023-11-18T03:05:13;14.13;;;9.93;;
25091;SDS011;13082;52.374;4.946;2023-11-18T03:07:43;17.50;;;10.73;;
25091;SDS011;13082;52.374;4.946;2023-11-18T03:10:14;17.37;;;11.10;;
25091;SDS011;13082;52.374;4.946;2023-11-18T03:12:46;20.30;;;11.27;;
25091;SDS011;13082;52.374;4.946;2023-11-18T03:15:13;13.70;;;10.10;;
25091;SDS011;13082;52.374;4.946;2023-11-18T03:17:41;17.50;;;10.73;;
25091;SDS011;13082;52.374;4.946;2023-11-18T03:20:09;17.13;;;10.73;;
25091;SDS011;13082;52.374;4.946;2023-11-18T03:22:39;18.80;;;11.07;;
25091;SDS011;13082;52.374;4.946;2023-11-18T03:25:05;17.07;;;10.17;;
25091;SDS011;13082;52.374;4.946;2023-11-18T03:27:32;17.33;;;10.70;;
25091;SDS011;13082;52.374;4.946;2023-11-18T03:29:58;19.90;;;10.93;;
25091;SDS011;13082;52.374;4.946;2023-11-18T03:32:24;16.17;;;10.77;;
25091;SDS011;13082;52.374;4.946;2023-11-18T03:34:49;17.07;;;10.13;;
25091;SDS011;13082;52.374;4.946;2023-11-18T03:37:15;15.67;;;10.43;;
25091;SDS011;13082;52.374;4.946;2023-11-18T03:39:40;15.10;;;9.93;;
25091;SDS011;13082;52.374;4.946;2023-11-18T03:42:06;17.27;;;10.50;;
25091;SDS011;13082;52.374;4.946;2023-11-18T03:44:32;17.43;;;9.60;;
25091;SDS011;13082;52.374;4.946;2023-11-18T03:46:58;14.63;;;9.37;;
25091;SDS011;13082;52.374;4.946;2023-11-18T03:49:23;15.53;;;9.47;;
25091;SDS011;13082;52.374;4.946;2023-11-18T03:51:49;17.67;;;8.93;;
25091;SDS011;13082;52.374;4.946;2023-11-18T03:54:15;16.40;;;9.53;;
25091;SDS011;13082;52.374;4.946;2023-11-18T03:56:40;13.00;;;8.60;;
25091;SDS011;13082;52.374;4.946;2023-11-18T03:59:06;12.53;;;8.43;;
25091;SDS011;13082;52.374;4.946;2023-11-18T04:01:31;17.50;;;9.73;;
25091;SDS011;13082;52.374;4.946;2023-11-18T04:03:57;12.13;;;8.87;;
25091;SDS011;13082;52.374;4.946;2023-11-18T04:06:23;14.07;;;9.30;;
25091;SDS011;13082;52.374;4.946;2023-11-18T04:08:49;19.80;;;10.03;;
25091;SDS011;13082;52.374;4.946;2023-11-18T04:11:15;15.33;;;8.93;;
25091;SDS011;13082;52.374;4.946;2023-11-18T04:13:41;16.63;;;8.87;;
25091;SDS011;13082;52.374;4.946;2023-11-18T04:16:14;16.63;;;9.43;;
25091;SDS011;13082;52.374;4.946;2023-11-18T04:18:40;17.07;;;9.00;;
25091;SDS011;13082;52.374;4.946;2023-11-18T04:21:07;15.87;;;9.27;;
25091;SDS011;13082;52.374;4.946;2023-11-18T04:23:34;12.17;;;8.47;;
25091;SDS011;13082;52.374;4.946;2023-11-18T04:26:06;15.07;;;9.40;;
25091;SDS011;13082;52.374;4.946;2023-11-18T04:28:35;13.20;;;9.30;;
25091;SDS011;13082;52.374;4.946;2023-11-18T04:31:01;14.00;;;9.40;;
25091;SDS011;13082;52.374;4.946;2023-11-18T04:33:28;13.23;;;8.43;;
25091;SDS011;13082;52.374;4.946;2023-11-18T04:35:54;15.33;;;9.10;;
25091;SDS011;13082;52.374;4.946;2023-11-18T04:38:22;13.20;;;9.17;;
25091;SDS011;13082;52.374;4.946;2023-11-18T04:40:48;15.63;;;9.43;;
25091;SDS011;13082;52.374;4.946;2023-11-18T04:43:13;14.23;;;8.57;;
25091;SDS011;13082;52.374;4.946;2023-11-18T04:45:40;15.63;;;8.67;;
25091;SDS011;13082;52.374;4.946;2023-11-18T04:48:07;19.00;;;8.73;;
25091;SDS011;13082;52.374;4.946;2023-11-18T04:50:33;15.67;;;8.80;;
25091;SDS011;13082;52.374;4.946;2023-11-18T04:52:59;14.57;;;8.90;;
25091;SDS011;13082;52.374;4.946;2023-11-18T04:55:24;15.23;;;7.90;;
25091;SDS011;13082;52.374;4.946;2023-11-18T04:57:53;16.00;;;7.83;;
25091;SDS011;13082;52.374;4.946;2023-11-18T05:00:20;13.50;;;7.23;;
25091;SDS011;13082;52.374;4.946;2023-11-18T05:02:46;12.73;;;8.03;;
25091;SDS011;13082;52.374;4.946;2023-11-18T05:05:13;13.33;;;7.90;;
25091;SDS011;13082;52.374;4.946;2023-11-18T05:07:43;15.23;;;8.47;;
25091;SDS011;13082;52.374;4.946;2023-11-18T05:10:09;13.17;;;8.73;;
25091;SDS011;13082;52.374;4.946;2023-11-18T05:12:35;11.53;;;7.70;;
25091;SDS011;13082;52.374;4.946;2023-11-18T05:15:02;17.63;;;8.03;;
25091;SDS011;13082;52.374;4.946;2023-11-18T05:17:32;23.10;;;10.97;;
25091;SDS011;13082;52.374;4.946;2023-11-18T05:20:00;13.53;;;7.17;;
25091;SDS011;13082;52.374;4.946;2023-11-18T05:22:27;23.33;;;8.60;;
25091;SDS011;13082;52.374;4.946;2023-11-18T05:24:53;13.03;;;7.50;;
25091;SDS011;13082;52.374;4.946;2023-11-18T05:27:18;12.83;;;6.60;;
25091;SDS011;13082;52.374;4.946;2023-11-18T05:29:44;14.87;;;6.90;;
25091;SDS011;13082;52.374;4.946;2023-11-18T05:32:13;14.00;;;7.20;;
25091;SDS011;13082;52.374;4.946;2023-11-18T05:34:39;12.50;;;6.87;;
25091;SDS011;13082;52.374;4.946;2023-11-18T05:37:04;11.03;;;6.73;;
25091;SDS011;13082;52.374;4.946;2023-11-18T05:39:30;12.70;;;6.93;;
25091;SDS011;13082;52.374;4.946;2023-11-18T05:41:56;15.60;;;7.07;;
25091;SDS011;13082;52.374;4.946;2023-11-18T05:44:23;13.37;;;6.93;;
25091;SDS011;13082;52.374;4.946;2023-11-18T05:46:59;14.40;;;8.30;;
25091;SDS011;13082;52.374;4.946;2023-11-18T05:49:25;11.90;;;7.53;;
25091;SDS011;13082;52.374;4.946;2023-11-18T05:51:50;14.27;;;7.47;;
25091;SDS011;13082;52.374;4.946;2023-11-18T05:54:16;14.50;;;6.93;;
25091;SDS011;13082;52.374;4.946;2023-11-18T05:56:42;15.77;;;6.90;;
25091;SDS011;13082;52.374;4.946;2023-11-18T05:59:08;14.03;;;7.70;;
25091;SDS011;13082;52.374;4.946;2023-11-18T06:01:35;10.83;;;7.23;;
25091;SDS011;13082;52.374;4.946;2023-11-18T06:04:02;12.57;;;7.00;;
25091;SDS011;13082;52.374;4.946;2023-11-18T06:06:28;15.17;;;7.00;;
25091;SDS011;13082;52.374;4.946;2023-11-18T06:08:54;15.77;;;7.67;;
25091;SDS011;13082;52.374;4.946;2023-11-18T06:11:19;14.30;;;8.07;;
25091;SDS011;13082;52.374;4.946;2023-11-18T06:13:46;14.03;;;7.87;;
25091;SDS011;13082;52.374;4.946;2023-11-18T06:16:17;15.93;;;8.23;;
25091;SDS011;13082;52.374;4.946;2023-11-18T06:18:48;14.93;;;7.60;;
25091;SDS011;13082;52.374;4.946;2023-11-18T06:21:16;12.80;;;7.47;;
25091;SDS011;13082;52.374;4.946;2023-11-18T06:23:43;17.47;;;7.97;;
25091;SDS011;13082;52.374;4.946;2023-11-18T06:26:10;12.73;;;7.60;;
25091;SDS011;13082;52.374;4.946;2023-11-18T06:28:40;12.50;;;6.90;;
25091;SDS011;13082;52.374;4.946;2023-11-18T06:31:07;16.30;;;8.03;;
25091;SDS011;13082;52.374;4.946;2023-11-18T06:33:42;17.37;;;8.50;;
25091;SDS011;13082;52.374;4.946;2023-11-18T06:36:18;13.83;;;7.80;;
25091;SDS011;13082;52.374;4.946;2023-11-18T06:38:46;14.70;;;7.83;;
25091;SDS011;13082;52.374;4.946;2023-11-18T06:41:14;14.20;;;8.27;;
25091;SDS011;13082;52.374;4.946;2023-11-18T06:43:42;17.53;;;8.47;;
25091;SDS011;13082;52.374;4.946;2023-11-18T06:46:21;15.70;;;8.10;;
25091;SDS011;13082;52.374;4.946;2023-11-18T06:48:48;15.33;;;8.70;;
25091;SDS011;13082;52.374;4.946;2023-11-18T06:51:15;13.60;;;8.63;;
25091;SDS011;13082;52.374;4.946;2023-11-18T06:53:41;20.43;;;9.13;;
25091;SDS011;13082;52.374;4.946;2023-11-18T06:56:08;17.33;;;9.50;;
25091;SDS011;13082;52.374;4.946;2023-11-18T06:58:36;18.20;;;10.43;;
25091;SDS011;13082;52.374;4.946;2023-11-18T07:01:03;17.30;;;10.17;;
25091;SDS011;13082;52.374;4.946;2023-11-18T07:03:30;17.00;;;10.60;;
25091;SDS011;13082;52.374;4.946;2023-11-18T07:05:56;18.40;;;10.17;;
25091;SDS011;13082;52.374;4.946;2023-11-18T07:08:22;21.37;;;11.83;;
25091;SDS011;13082;52.374;4.946;2023-11-18T07:10:49;21.43;;;12.00;;
25091;SDS011;13082;52.374;4.946;2023-11-18T07:13:15;27.03;;;12.23;;
25091;SDS011;13082;52.374;4.946;2023-11-18T07:15:41;23.27;;;12.83;;
25091;SDS011;13082;52.374;4.946;2023-11-18T07:18:07;17.13;;;11.20;;
25091;SDS011;13082;52.374;4.946;2023-11-18T07:20:34;22.87;;;12.73;;
25091;SDS011;13082;52.374;4.946;2023-11-18T07:23:00;23.63;;;12.73;;
25091;SDS011;13082;52.374;4.946;2023-11-18T07:25:25;20.60;;;12.70;;
25091;SDS011;13082;52.374;4.946;2023-11-18T07:27:52;27.37;;;13.30;;
25091;SDS011;13082;52.374;4.946;2023-11-18T07:30:17;23.77;;;12.30;;
25091;SDS011;13082;52.374;4.946;2023-11-18T07:32:43;22.73;;;13.47;;
25091;SDS011;13082;52.374;4.946;2023-11-18T07:35:09;18.47;;;13.27;;
25091;SDS011;13082;52.374;4.946;2023-11-18T07:37:37;25.03;;;14.87;;
25091;SDS011;13082;52.374;4.946;2023-11-18T07:40:03;21.80;;;12.57;;
25091;SDS011;13082;52.374;4.946;2023-11-18T07:42:33;28.57;;;13.83;;
25091;SDS011;13082;52.374;4.946;2023-11-18T07:44:59;24.20;;;13.33;;
25091;SDS011;13082;52.374;4.946;2023-11-18T07:47:29;21.43;;;13.73;;
25091;SDS011;13082;52.374;4.946;2023-11-18T07:49:56;25.27;;;13.73;;
25091;SDS011;13082;52.374;4.946;2023-11-18T07:52:24;23.53;;;13.07;;
25091;SDS011;13082;52.374;4.946;2023-11-18T07:54:52;21.37;;;13.23;;
25091;SDS011;13082;52.374;4.946;2023-11-18T07:57:18;21.80;;;12.13;;
25091;SDS011;13082;52.374;4.946;2023-11-18T07:59:43;19.57;;;11.43;;
25091;SDS011;13082;52.374;4.946;2023-11-18T08:02:09;20.63;;;10.70;;
25091;SDS011;13082;52.374;4.946;2023-11-18T08:04:36;19.90;;;10.67;;
25091;SDS011;13082;52.374;4.946;2023-11-18T08:07:01;16.60;;;10.07;;
25091;SDS011;13082;52.374;4.946;2023-11-18T08:09:29;18.40;;;11.00;;
25091;SDS011;13082;52.374;4.946;2023-11-18T08:11:56;20.00;;;11.80;;
25091;SDS011;13082;52.374;4.946;2023-11-18T08:14:23;20.97;;;11.97;;
25091;SDS011;13082;52.374;4.946;2023-11-18T08:16:49;20.90;;;13.07;;
25091;SDS011;13082;52.374;4.946;2023-11-18T08:19:15;16.67;;;11.33;;
25091;SDS011;13082;52.374;4.946;2023-11-18T08:21:40;16.87;;;11.40;;
25091;SDS011;13082;52.374;4.946;2023-11-18T08:24:07;21.63;;;11.67;;
25091;SDS011;13082;52.374;4.946;2023-11-18T08:26:33;22.10;;;11.13;;
25091;SDS011;13082;52.374;4.946;2023-11-18T08:29:00;20.70;;;12.57;;
25091;SDS011;13082;52.374;4.946;2023-11-18T08:31:26;15.73;;;10.97;;
25091;SDS011;13082;52.374;4.946;2023-11-18T08:33:52;16.33;;;11.33;;
25091;SDS011;13082;52.374;4.946;2023-11-18T08:36:19;15.57;;;10.40;;
25091;SDS011;13082;52.374;4.946;2023-11-18T08:38:47;21.20;;;10.60;;
25091;SDS011;13082;52.374;4.946;2023-11-18T08:41:13;20.17;;;10.47;;
25091;SDS011;13082;52.374;4.946;2023-11-18T08:43:38;17.80;;;11.47;;
25091;SDS011;13082;52.374;4.946;2023-11-18T08:46:06;17.57;;;11.17;;
25091;SDS011;13082;52.374;4.946;2023-11-18T08:48:32;17.73;;;10.23;;
25091;SDS011;13082;52.374;4.946;2023-11-18T08:50:59;19.23;;;10.90;;
25091;SDS011;13082;52.374;4.946;2023-11-18T08:53:26;17.47;;;10.57;;
25091;SDS011;13082;52.374;4.946;2023-11-18T08:55:52;16.13;;;10.40;;
25091;SDS011;13082;52.374;4.946;2023-11-18T08:58:21;16.77;;;10.33;;
25091;SDS011;13082;52.374;4.946;2023-11-18T09:00:48;20.13;;;11.00;;
25091;SDS011;13082;52.374;4.946;2023-11-18T09:03:28;21.40;;;10.40;;
25091;SDS011;13082;52.374;4.946;2023-11-18T09:05:58;13.20;;;8.97;;
25091;SDS011;13082;52.374;4.946;2023-11-18T09:11:00;16.40;;;9.27;;
25091;SDS011;13082;52.374;4.946;2023-11-18T09:13:27;20.53;;;9.67;;
25091;SDS011;13082;52.374;4.946;2023-11-18T09:16:03;17.77;;;8.73;;
25091;SDS011;13082;52.374;4.946;2023-11-18T09:18:33;14.37;;;9.23;;
25091;SDS011;13082;52.374;4.946;2023-11-18T09:21:00;11.83;;;7.83;;
25091;SDS011;13082;52.374;4.946;2023-11-18T09:23:28;17.98;;;10.63;;
25091;SDS011;13082;52.374;4.946;2023-11-18T09:25:54;14.73;;;8.20;;
25091;SDS011;13082;52.374;4.946;2023-11-18T09:28:20;20.40;;;7.93;;
25091;SDS011;13082;52.374;4.946;2023-11-18T09:30:47;12.30;;;7.87;;
25091;SDS011;13082;52.374;4.946;2023-11-18T09:33:21;14.30;;;8.60;;
25091;SDS011;13082;52.374;4.946;2023-11-18T09:35:56;16.38;;;8.80;;
25091;SDS011;13082;52.374;4.946;2023-11-18T09:38:29;12.33;;;7.77;;
25091;SDS011;13082;52.374;4.946;2023-11-18T09:40:58;13.57;;;7.83;;
25091;SDS011;13082;52.374;4.946;2023-11-18T09:43:31;15.87;;;7.23;;
25091;SDS011;13082;52.374;4.946;2023-11-18T09:46:01;13.73;;;7.23;;
25091;SDS011;13082;52.374;4.946;2023-11-18T09:48:37;13.70;;;7.80;;
25091;SDS011;13082;52.374;4.946;2023-11-18T09:51:25;10.93;;;6.27;;
25091;SDS011;13082;52.374;4.946;2023-11-18T09:53:56;15.13;;;7.67;;
25091;SDS011;13082;52.374;4.946;2023-11-18T09:56:35;16.33;;;6.50;;
25091;SDS011;13082;52.374;4.946;2023-11-18T09:59:18;12.10;;;7.23;;
25091;SDS011;13082;52.374;4.946;2023-11-18T10:01:52;13.87;;;7.77;;
25091;SDS011;13082;52.374;4.946;2023-11-18T10:04:22;13.63;;;7.90;;
25091;SDS011;13082;52.374;4.946;2023-11-18T10:06:52;16.77;;;8.13;;
25091;SDS011;13082;52.374;4.946;2023-11-18T10:09:18;12.47;;;7.63;;
25091;SDS011;13082;52.374;4.946;2023-11-18T10:11:53;16.57;;;7.17;;
25091;SDS011;13082;52.374;4.946;2023-11-18T10:14:25;10.30;;;6.90;;
25091;SDS011;13082;52.374;4.946;2023-11-18T10:16:51;15.27;;;7.13;;
25091;SDS011;13082;52.374;4.946;2023-11-18T10:19:19;12.63;;;7.63;;
25091;SDS011;13082;52.374;4.946;2023-11-18T10:21:45;12.10;;;8.23;;
25091;SDS011;13082;52.374;4.946;2023-11-18T10:24:14;12.87;;;7.60;;
25091;SDS011;13082;52.374;4.946;2023-11-18T10:26:43;14.07;;;8.17;;
25091;SDS011;13082;52.374;4.946;2023-11-18T10:29:10;14.30;;;8.03;;
25091;SDS011;13082;52.374;4.946;2023-11-18T10:31:39;11.50;;;7.60;;
25091;SDS011;13082;52.374;4.946;2023-11-18T10:34:10;11.47;;;7.37;;
25091;SDS011;13082;52.374;4.946;2023-11-18T10:36:37;13.13;;;7.53;;
25091;SDS011;13082;52.374;4.946;2023-11-18T10:39:03;12.10;;;7.07;;
25091;SDS011;13082;52.374;4.946;2023-11-18T10:41:42;13.70;;;7.20;;
25091;SDS011;13082;52.374;4.946;2023-11-18T10:44:08;16.27;;;7.50;;
25091;SDS011;13082;52.374;4.946;2023-11-18T10:46:52;11.67;;;7.50;;
25091;SDS011;13082;52.374;4.946;2023-11-18T10:49:20;17.00;;;7.37;;
25091;SDS011;13082;52.374;4.946;2023-11-18T10:51:46;11.00;;;6.57;;
25091;SDS011;13082;52.374;4.946;2023-11-18T10:54:12;12.57;;;7.07;;
25091;SDS011;13082;52.374;4.946;2023-11-18T10:56:47;8.80;;;6.37;;
25091;SDS011;13082;52.374;4.946;2023-11-18T10:59:16;14.53;;;7.67;;
25091;SDS011;13082;52.374;4.946;2023-11-18T11:01:43;13.83;;;6.97;;
25091;SDS011;13082;52.374;4.946;2023-11-18T11:04:12;9.17;;;6.77;;
25091;SDS011;13082;52.374;4.946;2023-11-18T11:06:42;11.43;;;7.53;;
25091;SDS011;13082;52.374;4.946;2023-11-18T11:09:11;9.57;;;6.27;;
25091;SDS011;13082;52.374;4.946;2023-11-18T11:11:46;15.40;;;6.97;;
25091;SDS011;13082;52.374;4.946;2023-11-18T11:14:33;11.33;;;6.90;;
25091;SDS011;13082;52.374;4.946;2023-11-18T11:17:06;13.13;;;6.33;;
25091;SDS011;13082;52.374;4.946;2023-11-18T11:19:55;12.53;;;7.07;;
25091;SDS011;13082;52.374;4.946;2023-11-18T11:22:53;9.73;;;6.07;;
25091;SDS011;13082;52.374;4.946;2023-11-18T11:25:41;10.17;;;6.23;;
25091;SDS011;13082;52.374;4.946;2023-11-18T11:28:22;11.67;;;6.40;;
25091;SDS011;13082;52.374;4.946;2023-11-18T11:30:55;10.40;;;5.87;;
25091;SDS011;13082;52.374;4.946;2023-11-18T11:36:41;8.70;;;5.70;;
25091;SDS011;13082;52.374;4.946;2023-11-18T11:39:13;6.50;;;4.63;;
25091;SDS011;13082;52.374;4.946;2023-11-18T11:41:46;9.30;;;5.13;;
25091;SDS011;13082;52.374;4.946;2023-11-18T11:44:16;11.37;;;4.90;;
25091;SDS011;13082;52.374;4.946;2023-11-18T11:46:44;12.23;;;5.63;;
25091;SDS011;13082;52.374;4.946;2023-11-18T11:49:17;6.60;;;4.30;;
25091;SDS011;13082;52.374;4.946;2023-11-18T11:54:37;7.90;;;4.70;;
25091;SDS011;13082;52.374;4.946;2023-11-18T11:57:09;8.00;;;4.53;;
25091;SDS011;13082;52.374;4.946;2023-11-18T12:02:12;7.63;;;4.50;;
25091;SDS011;13082;52.374;4.946;2023-11-18T12:04:44;13.23;;;3.70;;
25091;SDS011;13082;52.374;4.946;2023-11-18T12:07:10;7.40;;;3.43;;
25091;SDS011;13082;52.374;4.946;2023-11-18T12:09:40;5.37;;;3.00;;
25091;SDS011;13082;52.374;4.946;2023-11-18T12:12:18;9.57;;;3.57;;
25091;SDS011;13082;52.374;4.946;2023-11-18T12:14:51;3.20;;;2.73;;
25091;SDS011;13082;52.374;4.946;2023-11-18T12:17:21;5.50;;;3.47;;
25091;SDS011;13082;52.374;4.946;2023-11-18T12:19:50;4.60;;;3.30;;
25091;SDS011;13082;52.374;4.946;2023-11-18T12:22:23;4.33;;;3.10;;
25091;SDS011;13082;52.374;4.946;2023-11-18T12:41:05;3.27;;;2.93;;
25091;SDS011;13082;52.374;4.946;2023-11-18T12:43:49;4.33;;;2.80;;
25091;SDS011;13082;52.374;4.946;2023-11-18T12:49:34;2.90;;;2.30;;
25091;SDS011;13082;52.374;4.946;2023-11-18T12:52:06;3.73;;;2.80;;
25091;SDS011;13082;52.374;4.946;2023-11-18T12:54:33;5.40;;;2.80;;
25091;SDS011;13082;52.374;4.946;2023-11-18T12:57:03;9.83;;;3.07;;
25091;SDS011;13082;52.374;4.946;2023-11-18T12:59:35;4.07;;;2.20;;
25091;SDS011;13082;52.374;4.946;2023-11-18T13:02:02;4.03;;;2.33;;
25091;SDS011;13082;52.374;4.946;2023-11-18T13:04:41;2.10;;;1.90;;
25091;SDS011;13082;52.374;4.946;2023-11-18T13:07:06;2.33;;;1.80;;
25091;SDS011;13082;52.374;4.946;2023-11-18T13:09:36;1.43;;;1.33;;
25091;SDS011;13082;52.374;4.946;2023-11-18T13:12:03;5.47;;;1.70;;
25091;SDS011;13082;52.374;4.946;2023-11-18T13:14:33;3.13;;;1.73;;
25091;SDS011;13082;52.374;4.946;2023-11-18T13:17:02;1.70;;;1.50;;
25091;SDS011;13082;52.374;4.946;2023-11-18T13:19:31;2.73;;;2.13;;
25091;SDS011;13082;52.374;4.946;2023-11-18T13:22:02;2.37;;;2.17;;
25091;SDS011;13082;52.374;4.946;2023-11-18T13:24:32;3.97;;;1.80;;
25091;SDS011;13082;52.374;4.946;2023-11-18T13:26:58;2.37;;;2.03;;
25091;SDS011;13082;52.374;4.946;2023-11-18T13:29:29;2.10;;;1.90;;
25091;SDS011;13082;52.374;4.946;2023-11-18T13:31:56;2.53;;;1.70;;
25091;SDS011;13082;52.374;4.946;2023-11-18T13:34:23;1.63;;;1.53;;
25091;SDS011;13082;52.374;4.946;2023-11-18T13:36:49;3.67;;;1.73;;
25091;SDS011;13082;52.374;4.946;2023-11-18T13:39:18;2.87;;;1.80;;
25091;SDS011;13082;52.374;4.946;2023-11-18T13:41:44;2.27;;;2.03;;
25091;SDS011;13082;52.374;4.946;2023-11-18T13:44:31;2.23;;;1.50;;
25091;SDS011;13082;52.374;4.946;2023-11-18T13:46:59;1.77;;;1.57;;
25091;SDS011;13082;52.374;4.946;2023-11-18T13:49:27;2.03;;;1.50;;
25091;SDS011;13082;52.374;4.946;2023-11-18T13:51:54;2.10;;;1.87;;
25091;SDS011;13082;52.374;4.946;2023-11-18T13:54:21;2.77;;;1.50;;
25091;SDS011;13082;52.374;4.946;2023-11-18T13:56:47;3.10;;;1.80;;
25091;SDS011;13082;52.374;4.946;2023-11-18T13:59:23;2.13;;;1.90;;
25091;SDS011;13082;52.374;4.946;2023-11-18T14:01:49;4.63;;;1.70;;
25091;SDS011;13082;52.374;4.946;2023-11-18T14:04:17;1.70;;;1.60;;
25091;SDS011;13082;52.374;4.946;2023-11-18T14:06:43;1.23;;;1.20;;
25091;SDS011;13082;52.374;4.946;2023-11-18T14:09:08;0.97;;;0.97;;
25091;SDS011;13082;52.374;4.946;2023-11-18T14:11:36;1.60;;;1.50;;
25091;SDS011;13082;52.374;4.946;2023-11-18T14:14:01;1.30;;;1.20;;
25091;SDS011;13082;52.374;4.946;2023-11-18T14:16:27;1.30;;;1.20;;
25091;SDS011;13082;52.374;4.946;2023-11-18T14:18:53;1.40;;;1.30;;
25091;SDS011;13082;52.374;4.946;2023-11-18T14:21:18;1.43;;;1.20;;
25091;SDS011;13082;52.374;4.946;2023-11-18T14:23:45;1.47;;;1.20;;
25091;SDS011;13082;52.374;4.946;2023-11-18T14:26:10;2.30;;;1.00;;
25091;SDS011;13082;52.374;4.946;2023-11-18T14:28:37;1.67;;;1.00;;
25091;SDS011;13082;52.374;4.946;2023-11-18T14:31:02;1.40;;;1.30;;
25091;SDS011;13082;52.374;4.946;2023-11-18T14:33:36;1.00;;;1.00;;
25091;SDS011;13082;52.374;4.946;2023-11-18T14:36:02;2.90;;;1.50;;
25091;SDS011;13082;52.374;4.946;2023-11-18T14:38:30;1.53;;;1.13;;
25091;SDS011;13082;52.374;4.946;2023-11-18T14:40:55;1.53;;;1.43;;
25091;SDS011;13082;52.374;4.946;2023-11-18T14:43:21;1.10;;;1.10;;
25091;SDS011;13082;52.374;4.946;2023-11-18T14:45:47;1.20;;;1.10;;
25091;SDS011;13082;52.374;4.946;2023-11-18T14:48:13;1.30;;;1.20;;
25091;SDS011;13082;52.374;4.946;2023-11-18T14:50:39;1.23;;;1.13;;
25091;SDS011;13082;52.374;4.946;2023-11-18T14:53:05;1.10;;;1.10;;
25091;SDS011;13082;52.374;4.946;2023-11-18T14:55:31;2.17;;;1.40;;
25091;SDS011;13082;52.374;4.946;2023-11-18T14:57:57;1.13;;;1.13;;
25091;SDS011;13082;52.374;4.946;2023-11-18T15:00:23;1.37;;;1.37;;
25091;SDS011;13082;52.374;4.946;2023-11-18T15:02:52;1.67;;;1.13;;
25091;SDS011;13082;52.374;4.946;2023-11-18T15:05:20;3.47;;;1.50;;
25091;SDS011;13082;52.374;4.946;2023-11-18T15:10:15;1.50;;;1.40;;
25091;SDS011;13082;52.374;4.946;2023-11-18T15:12:48;2.10;;;1.20;;